Time;durP1;ratioP1;P1;durP2;ratioP2;P2;SDS_P1;SDS_P2;PMS_P1;PMS_P2;Temp;Humidity;BMP_temperature;BMP_pressure;BME280_temperature;BME280_humidity;BME280_pressure;Samples;Min_cycle;Max_cycle;Signal;HPM_P1;HPM_P2
2022/01/06 00:01:19;;;;;;;9.43;1.45;;;4.70;99.90;;;;;;5045028;28;20044;-89
2022/01/06 00:03:46;;;;;;;6.97;1.30;;;5.70;99.90;;;;;;5012343;28;20038;-89
2022/01/06 00:06:12;;;;;;;6.43;1.23;;;4.60;99.90;;;;;;5066096;28;20794;-88
2022/01/06 00:08:39;;;;;;;4.90;1.00;;;4.60;99.90;;;;;;5050353;28;20046;-88
2022/01/06 00:11:06;;;;;;;11.00;1.10;;;4.60;99.90;;;;;;5045654;28;20071;-88
2022/01/06 00:13:34;;;;;;;8.07;1.33;;;4.50;99.90;;;;;;5009850;28;20110;-89
2022/01/06 00:16:09;;;;;;;10.10;1.80;;;5.70;99.90;;;;;;5066570;28;20102;-89
2022/01/06 00:23:05;;;;;;;9.35;1.33;;;4.40;99.90;;;;;;5030497;28;20065;-88
2022/01/06 00:24:05;;;;;;;4.57;1.42;;;4.40;99.90;;;;;;5054891;28;20044;-88
2022/01/06 00:26:31;;;;;;;8.82;1.30;;;4.30;99.90;;;;;;5059695;28;20039;-87
2022/01/06 00:28:56;;;;;;;8.97;1.47;;;4.30;99.90;;;;;;5018740;28;20032;-88
2022/01/06 00:31:22;;;;;;;9.80;2.03;;;4.40;99.90;;;;;;5010890;28;20293;-88
2022/01/06 00:33:48;;;;;;;9.05;2.03;;;4.40;99.90;;;;;;5051621;28;20038;-87
2022/01/06 00:36:13;;;;;;;9.80;1.70;;;4.10;99.90;;;;;;5068291;28;20054;-88
2022/01/06 00:38:39;;;;;;;10.57;2.03;;;4.00;99.90;;;;;;5047183;28;20278;-88
2022/01/06 00:41:05;;;;;;;13.82;2.00;;;5.50;99.90;;;;;;5013616;28;20075;-88
2022/01/06 00:43:30;;;;;;;13.57;2.15;;;4.00;99.90;;;;;;5051549;28;20166;-88
2022/01/06 00:45:56;;;;;;;11.75;1.95;;;5.00;99.90;;;;;;5037339;28;20126;-88
2022/01/06 00:48:22;;;;;;;11.13;2.07;;;3.90;99.90;;;;;;5038577;28;20032;-89
2022/01/06 00:50:47;;;;;;;16.47;3.10;;;4.80;99.90;;;;;;5013843;28;20410;-88
2022/01/06 00:53:13;;;;;;;12.07;1.97;;;5.00;99.90;;;;;;5049021;28;20362;-88
2022/01/06 00:55:40;;;;;;;13.70;2.53;;;4.00;99.90;;;;;;5026502;28;20045;-88
2022/01/06 00:58:06;;;;;;;11.70;1.80;;;4.20;99.90;;;;;;5013060;28;20373;-89
2022/01/06 01:00:40;;;;;;;8.82;1.40;;;4.30;99.90;;;;;;5013300;28;20040;-89
2022/01/06 01:03:11;;;;;;;9.70;1.90;;;4.30;99.90;;;;;;5030745;28;20065;-88
2022/01/06 01:05:40;;;;;;;12.48;1.90;;;4.30;99.90;;;;;;5029314;28;20040;-89
2022/01/06 01:08:06;;;;;;;10.23;1.90;;;4.40;99.90;;;;;;5055106;28;20072;-89
2022/01/06 01:10:33;;;;;;;13.00;2.22;;;4.30;99.90;;;;;;5050733;28;20033;-89
2022/01/06 01:12:59;;;;;;;11.07;2.03;;;4.30;99.90;;;;;;5045867;28;20078;-89
2022/01/06 01:15:26;;;;;;;12.25;2.00;;;4.20;99.90;;;;;;5047694;28;20029;-88
2022/01/06 01:17:53;;;;;;;14.90;2.17;;;4.20;99.90;;;;;;5056505;28;20097;-88
2022/01/06 01:20:20;;;;;;;;;;;5.50;99.90;;;;;;5056557;28;20040;-89
2022/01/06 01:22:47;;;;;;;9.88;2.00;;;5.30;99.90;;;;;;5049096;28;19916;-89
2022/01/06 01:25:14;;;;;;;12.75;2.13;;;5.80;99.90;;;;;;5050106;28;20039;-88
2022/01/06 01:27:42;;;;;;;9.82;2.25;;;4.10;99.90;;;;;;5063720;28;20044;-88
2022/01/06 01:30:13;;;;;;;10.43;1.88;;;4.10;99.90;;;;;;5036711;28;20039;-87
2022/01/06 01:32:45;;;;;;;10.95;1.73;;;4.20;99.90;;;;;;5058623;28;20041;-88
2022/01/06 01:35:11;;;;;;;11.65;2.03;;;5.70;99.90;;;;;;5014073;28;20066;-89
2022/01/06 01:37:38;;;;;;;12.82;2.42;;;4.60;99.90;;;;;;5045641;28;20048;-88
2022/01/06 01:40:05;;;;;;;10.73;2.15;;;4.40;99.90;;;;;;5028233;28;20055;-89
2022/01/06 01:42:33;;;;;;;13.60;2.20;;;4.40;99.90;;;;;;5052450;28;20039;-89
2022/01/06 01:45:01;;;;;;;10.43;1.88;;;4.40;99.90;;;;;;5030160;28;20037;-89
2022/01/06 01:47:38;;;;;;;9.23;1.80;;;4.40;99.90;;;;;;5042329;28;20073;-89
2022/01/06 01:50:18;;;;;;;13.90;1.95;;;4.90;99.90;;;;;;5044827;28;20025;-89
2022/01/06 01:52:47;;;;;;;11.13;2.00;;;4.40;99.90;;;;;;5044008;28;20462;-88
2022/01/06 01:55:34;;;;;;;8.80;1.60;;;4.40;99.90;;;;;;5039939;28;20032;-88
2022/01/06 01:58:00;;;;;;;13.93;2.53;;;4.30;99.90;;;;;;5045274;28;20066;-89
2022/01/06 02:00:28;;;;;;;10.90;2.13;;;5.50;99.90;;;;;;5031192;28;20044;-89
2022/01/06 02:02:54;;;;;;;8.00;1.80;;;4.20;99.90;;;;;;5028836;28;20115;-88
2022/01/06 02:05:25;;;;;;;;;;;4.70;99.90;;;;;;5026325;28;20123;-88
2022/01/06 02:07:52;;;;;;;14.18;2.83;;;4.10;99.90;;;;;;5036668;28;20065;-88
2022/01/06 02:10:20;;;;;;;16.98;2.40;;;4.00;99.90;;;;;;5036981;28;20045;-87
2022/01/06 02:12:48;;;;;;;8.45;1.70;;;3.90;99.90;;;;;;5025577;28;20040;-89
2022/01/06 02:15:14;;;;;;;11.88;2.00;;;5.20;99.90;;;;;;5044405;28;20098;-89
2022/01/06 02:17:41;;;;;;;12.93;1.98;;;4.60;99.90;;;;;;5044203;28;20481;-88
2022/01/06 02:20:09;;;;;;;17.88;2.40;;;3.60;99.90;;;;;;5048836;28;20040;-89
2022/01/06 02:22:36;;;;;;;11.98;2.17;;;3.60;99.90;;;;;;5018427;28;20061;-88
2022/01/06 02:25:17;;;;;;;13.48;2.30;;;3.60;99.90;;;;;;5044261;28;20039;-88
2022/01/06 02:27:46;;;;;;;12.85;2.13;;;3.60;99.90;;;;;;5060122;28;20096;-89
2022/01/06 02:30:12;;;;;;;17.08;2.20;;;3.60;99.90;;;;;;5058470;28;20024;-88
2022/01/06 02:32:38;;;;;;;14.90;1.90;;;4.00;99.90;;;;;;5038366;28;20044;-88
2022/01/06 02:35:09;;;;;;;10.68;2.03;;;3.90;99.90;;;;;;5050263;28;20029;-88
2022/01/06 02:37:35;;;;;;;12.30;2.28;;;3.30;99.90;;;;;;5045310;28;20484;-88
2022/01/06 02:40:01;;;;;;;12.60;2.20;;;3.20;99.90;;;;;;5069438;28;20033;-88
2022/01/06 02:42:28;;;;;;;13.07;2.08;;;3.10;99.90;;;;;;5046957;28;20036;-88
2022/01/06 02:44:54;;;;;;;14.15;2.10;;;3.10;99.90;;;;;;5071982;28;20041;-88
2022/01/06 02:47:20;;;;;;;23.03;2.40;;;4.20;99.90;;;;;;5036709;28;20041;-88
2022/01/06 02:49:46;;;;;;;19.13;2.30;;;3.30;99.90;;;;;;5035430;28;20377;-88
2022/01/06 02:52:11;;;;;;;10.15;2.10;;;3.60;99.90;;;;;;5018531;28;20115;-89
2022/01/06 02:54:37;;;;;;;15.15;2.50;;;3.10;99.90;;;;;;5053621;28;20036;-89
2022/01/06 02:57:04;;;;;;;18.03;2.60;;;3.10;99.90;;;;;;5037935;28;20043;-89
2022/01/06 02:59:30;;;;;;;18.50;2.85;;;3.10;99.90;;;;;;5054282;28;20906;-89
2022/01/06 03:01:55;;;;;;;15.32;2.20;;;3.50;99.90;;;;;;5020188;28;20127;-89
2022/01/06 03:04:23;;;;;;;14.00;2.25;;;3.20;99.90;;;;;;5035766;28;20036;-88
2022/01/06 03:06:50;;;;;;;14.68;2.47;;;3.20;99.90;;;;;;5030906;28;20047;-89
2022/01/06 03:09:24;;;;;;;18.92;2.88;;;3.70;99.90;;;;;;5038542;28;20032;-88
2022/01/06 03:11:51;;;;;;;15.13;2.20;;;4.00;99.90;;;;;;5035141;28;20041;-89
2022/01/06 03:14:17;;;;;;;13.25;2.00;;;3.20;99.90;;;;;;5040278;28;20042;-89
2022/01/06 03:16:42;;;;;;;15.40;2.50;;;3.50;99.90;;;;;;5039600;28;20400;-89
2022/01/06 03:19:08;;;;;;;11.47;2.57;;;4.20;99.90;;;;;;5024397;28;20301;-88
2022/01/06 03:21:34;;;;;;;15.10;2.67;;;4.20;99.90;;;;;;5017518;28;20040;-88
2022/01/06 03:23:59;;;;;;;15.83;2.23;;;3.10;99.90;;;;;;5059889;28;20575;-88
2022/01/06 03:26:25;;;;;;;15.32;2.53;;;3.90;99.90;;;;;;5015363;28;20592;-88
2022/01/06 03:28:51;;;;;;;12.77;2.33;;;3.10;99.90;;;;;;5042552;28;20040;-88
2022/01/06 03:31:17;;;;;;;13.95;2.45;;;3.10;99.90;;;;;;5038536;28;20028;-88
2022/01/06 03:33:43;;;;;;;15.00;2.08;;;3.10;99.90;;;;;;5052196;28;20115;-88
2022/01/06 03:36:08;;;;;;;15.32;2.80;;;3.60;99.90;;;;;;5011611;28;20535;-88
2022/01/06 03:38:34;;;;;;;12.10;2.27;;;4.50;99.90;;;;;;5017262;28;20071;-89
2022/01/06 03:41:00;;;;;;;14.07;2.50;;;3.10;99.90;;;;;;5052724;28;20043;-88
2022/01/06 03:43:25;;;;;;;16.83;2.73;;;4.70;99.90;;;;;;5011828;28;20033;-89
2022/01/06 03:45:51;;;;;;;16.33;2.22;;;3.00;99.90;;;;;;5047404;28;20339;-89
2022/01/06 03:48:17;;;;;;;16.50;2.63;;;3.50;99.90;;;;;;5022669;28;20039;-89
2022/01/06 03:50:42;;;;;;;15.53;3.10;;;3.00;99.90;;;;;;5041666;28;20035;-89
2022/01/06 03:53:08;;;;;;;24.13;2.73;;;2.90;99.90;;;;;;5018796;28;20630;-89
2022/01/06 03:55:36;;;;;;;10.27;2.28;;;4.50;99.90;;;;;;5019646;28;20303;-89
2022/01/06 03:58:02;;;;;;;18.15;2.40;;;3.80;99.90;;;;;;5009813;28;20029;-89
2022/01/06 04:00:28;;;;;;;12.38;2.20;;;3.50;99.90;;;;;;5008570;28;20607;-88
2022/01/06 04:02:53;;;;;;;11.50;2.42;;;2.70;99.90;;;;;;5036464;28;20445;-89
2022/01/06 04:05:19;;;;;;;8.40;2.00;;;3.50;99.90;;;;;;5013819;28;20034;-88
2022/01/06 04:07:45;;;;;;;10.93;1.75;;;2.60;99.90;;;;;;5035344;28;21121;-89
2022/01/06 04:10:12;;;;;;;14.48;3.28;;;2.50;99.90;;;;;;5047498;28;20540;-88
2022/01/06 04:12:39;;;;;;;13.00;1.98;;;3.90;99.90;;;;;;5052000;28;20029;-88
2022/01/06 04:15:09;;;;;;;14.43;2.08;;;3.60;99.90;;;;;;5052202;28;20473;-88
2022/01/06 04:17:35;;;;;;;12.60;2.00;;;2.20;99.90;;;;;;5054748;28;20093;-88
2022/01/06 04:20:01;;;;;;;10.63;1.60;;;2.20;99.90;;;;;;5044330;28;20032;-89
2022/01/06 04:22:27;;;;;;;13.32;2.22;;;3.70;99.90;;;;;;5034197;28;20047;-88
2022/01/06 04:24:52;;;;;;;10.10;2.37;;;2.00;99.90;;;;;;5050905;28;20046;-89
2022/01/06 04:27:18;;;;;;;11.43;2.40;;;1.90;99.90;;;;;;5010985;28;20304;-88
2022/01/06 04:29:44;;;;;;;8.70;1.67;;;1.90;99.90;;;;;;5017322;28;21174;-88
2022/01/06 04:32:09;;;;;;;13.47;2.00;;;3.50;99.90;;;;;;5016727;28;20170;-88
2022/01/06 04:34:35;;;;;;;15.67;1.70;;;3.30;99.90;;;;;;5020303;28;20270;-88
2022/01/06 04:37:01;;;;;;;10.87;1.80;;;1.80;99.90;;;;;;5067405;28;20377;-88
2022/01/06 04:39:27;;;;;;;13.07;1.80;;;1.80;99.90;;;;;;5038033;28;20048;-88
2022/01/06 04:41:53;;;;;;;12.05;2.08;;;1.90;99.90;;;;;;5029017;28;20043;-88
2022/01/06 04:44:19;;;;;;;13.70;2.22;;;1.70;99.90;;;;;;5015707;28;20032;-88
2022/01/06 04:46:44;;;;;;;15.38;1.95;;;1.60;99.90;;;;;;5037677;28;20125;-88
2022/01/06 04:49:10;;;;;;;16.10;2.13;;;1.70;99.90;;;;;;5054703;28;20045;-88
2022/01/06 04:51:36;;;;;;;7.80;1.70;;;2.00;99.90;;;;;;5048162;28;20430;-88
2022/01/06 04:54:02;;;;;;;16.63;2.20;;;2.90;99.90;;;;;;5018972;28;20138;-88
2022/01/06 04:56:35;;;;;;;13.30;2.17;;;1.40;99.90;;;;;;5046229;28;20047;-87
2022/01/06 04:59:02;;;;;;;13.68;1.98;;;1.40;99.90;;;;;;5018316;28;20123;-88
2022/01/06 05:01:28;;;;;;;13.52;2.10;;;1.60;99.90;;;;;;5048786;28;20036;-88
2022/01/06 05:03:54;;;;;;;12.82;1.70;;;2.90;99.90;;;;;;5058115;28;20046;-88
2022/01/06 05:06:20;;;;;;;10.38;2.00;;;1.40;99.90;;;;;;5008853;28;20112;-88
2022/01/06 05:08:45;;;;;;;12.05;1.95;;;1.40;99.90;;;;;;5033906;28;20047;-88
2022/01/06 05:11:11;;;;;;;12.70;2.17;;;2.40;99.90;;;;;;5036134;28;20070;-88
2022/01/06 05:13:37;;;;;;;11.27;2.15;;;2.10;99.90;;;;;;5043784;28;20036;-88
2022/01/06 05:16:03;;;;;;;13.10;1.95;;;2.40;99.90;;;;;;5038748;28;20043;-87
2022/01/06 05:18:29;;;;;;;;;;;1.40;99.90;;;;;;5035835;28;20514;-90
2022/01/06 05:20:55;;;;;;;15.77;2.40;;;1.40;99.90;;;;;;5041921;28;19962;-89
2022/01/06 05:23:20;;;;;;;15.75;2.13;;;2.30;99.90;;;;;;5015080;28;20070;-90
2022/01/06 05:25:46;;;;;;;11.45;2.25;;;1.80;99.90;;;;;;5039920;28;20041;-90
2022/01/06 05:28:12;;;;;;;11.88;2.33;;;1.30;99.90;;;;;;5048858;28;20032;-89
2022/01/06 05:30:38;;;;;;;11.38;2.08;;;1.50;99.90;;;;;;5032395;28;20032;-90
2022/01/06 05:33:03;;;;;;;11.32;1.58;;;2.70;99.90;;;;;;5074099;28;20036;-90
2022/01/06 05:35:29;;;;;;;13.07;2.30;;;1.30;99.90;;;;;;5011591;28;20037;-89
2022/01/06 05:37:55;;;;;;;18.25;1.95;;;1.30;99.90;;;;;;5025998;28;20685;-91
2022/01/06 05:40:21;;;;;;;11.57;2.03;;;1.30;99.90;;;;;;5029283;28;20025;-91
2022/01/06 05:42:48;;;;;;;15.38;2.40;;;1.30;99.90;;;;;;5051581;28;20074;-87
2022/01/06 05:45:15;;;;;;;13.85;1.95;;;1.30;99.90;;;;;;5036221;28;20047;-90
2022/01/06 05:47:41;;;;;;;14.73;1.70;;;2.20;99.90;;;;;;5016870;28;20037;-90
2022/01/06 05:50:08;;;;;;;10.90;1.70;;;1.30;99.90;;;;;;5047808;28;20037;-90
2022/01/06 05:52:35;;;;;;;13.05;2.22;;;1.20;99.90;;;;;;5047524;28;20059;-85
2022/01/06 05:55:01;;;;;;;;;;;1.30;99.90;;;;;;5050961;28;20052;-81
2022/01/06 05:57:27;;;;;;;13.48;2.58;;;1.20;99.90;;;;;;5062828;28;19955;-80
2022/01/06 05:59:52;;;;;;;19.10;1.98;;;1.10;99.90;;;;;;5066331;28;20448;-80
2022/01/06 06:02:18;;;;;;;14.40;2.73;;;1.60;99.90;;;;;;5062579;28;20480;-81
2022/01/06 06:04:45;;;;;;;15.13;2.28;;;1.60;99.90;;;;;;5058810;28;20123;-81
2022/01/06 06:07:11;;;;;;;17.80;2.58;;;1.20;99.90;;;;;;5047146;28;20123;-81
2022/01/06 06:09:37;;;;;;;12.02;1.88;;;1.10;99.90;;;;;;5048449;28;20119;-81
2022/01/06 06:12:03;;;;;;;19.05;2.45;;;2.10;99.90;;;;;;5068742;28;20067;-81
2022/01/06 06:14:29;;;;;;;12.98;2.50;;;1.10;99.90;;;;;;5044254;28;20032;-80
2022/01/06 06:16:55;;;;;;;11.05;1.80;;;1.10;99.90;;;;;;5065439;28;20432;-81
2022/01/06 06:19:20;;;;;;;8.83;2.03;;;1.20;99.90;;;;;;5030700;28;20048;-81
2022/01/06 06:21:46;;;;;;;17.67;2.83;;;1.20;99.90;;;;;;5043918;28;20305;-81
2022/01/06 06:24:12;;;;;;;15.17;2.10;;;1.70;99.90;;;;;;5061814;28;20306;-81
2022/01/06 06:26:37;;;;;;;12.47;1.97;;;1.10;99.90;;;;;;5044222;28;20040;-81
2022/01/06 06:29:03;;;;;;;14.87;2.13;;;1.10;99.90;;;;;;5044126;28;20347;-81
2022/01/06 06:31:29;;;;;;;17.05;2.75;;;1.10;99.90;;;;;;5046709;28;20495;-81
2022/01/06 06:33:54;;;;;;;14.02;2.20;;;1.10;99.90;;;;;;5061080;28;20032;-81
2022/01/06 06:36:20;;;;;;;17.48;2.20;;;1.70;99.90;;;;;;5063497;28;20039;-81
2022/01/06 06:38:46;;;;;;;20.55;2.30;;;3.00;99.90;;;;;;5049180;28;20404;-81
2022/01/06 06:41:12;;;;;;;17.53;2.50;;;1.20;99.90;;;;;;5046661;28;20036;-81
2022/01/06 06:43:37;;;;;;;11.13;2.33;;;1.00;99.90;;;;;;5064273;28;20278;-81
2022/01/06 06:46:03;;;;;;;11.82;2.47;;;1.00;99.90;;;;;;5048135;28;20124;-81
2022/01/06 06:48:29;;;;;;;20.00;2.60;;;0.90;99.90;;;;;;5060593;28;20070;-81
2022/01/06 06:50:54;;;;;;;12.48;1.90;;;1.20;99.90;;;;;;5062420;28;20306;-81
2022/01/06 06:53:20;;;;;;;10.73;2.15;;;1.50;99.90;;;;;;5041535;28;20062;-81
2022/01/06 06:55:46;;;;;;;9.63;2.05;;;0.90;99.90;;;;;;5048760;28;20046;-81
2022/01/06 06:58:11;;;;;;;12.77;2.03;;;0.90;99.90;;;;;;5028956;28;20028;-81
2022/01/06 07:00:37;;;;;;;15.05;2.50;;;0.90;99.90;;;;;;5057448;28;20679;-81
2022/01/06 07:03:03;;;;;;;10.15;1.95;;;0.90;99.90;;;;;;5048757;28;20071;-81
2022/01/06 07:05:29;;;;;;;15.70;2.33;;;0.60;99.90;;;;;;5024856;28;20033;-81
2022/01/06 07:07:55;;;;;;;20.00;2.10;;;0.80;99.90;;;;;;5057692;28;21149;-81
2022/01/06 07:10:21;;;;;;;16.63;2.90;;;0.90;99.90;;;;;;5066174;28;20119;-80
2022/01/06 07:12:46;;;;;;;10.55;2.25;;;0.80;99.90;;;;;;5051367;28;20036;-81
2022/01/06 07:15:14;;;;;;;12.50;2.72;;;1.90;99.90;;;;;;5031414;28;20028;-81
2022/01/06 07:17:41;;;;;;;14.93;2.47;;;0.70;99.90;;;;;;5061980;28;20637;-80
2022/01/06 07:20:07;;;;;;;13.10;2.15;;;0.70;99.90;;;;;;5069019;28;20377;-80
2022/01/06 07:22:33;;;;;;;;;;;0.70;99.90;;;;;;5068635;28;20028;-80
2022/01/06 07:25:01;;;;;;;14.32;2.50;;;0.70;99.90;;;;;;5074180;28;19924;-80
2022/01/06 07:27:27;;;;;;;15.75;2.60;;;0.80;99.90;;;;;;5057934;28;20050;-80
2022/01/06 07:29:52;;;;;;;17.48;2.83;;;0.80;99.90;;;;;;5062995;28;20032;-80
2022/01/06 07:32:18;;;;;;;20.20;2.90;;;0.70;99.90;;;;;;5047984;28;20089;-80
2022/01/06 07:34:44;;;;;;;15.73;3.10;;;0.70;99.90;;;;;;5049892;28;20480;-80
2022/01/06 07:37:09;;;;;;;14.27;2.53;;;2.20;99.90;;;;;;5049547;28;20044;-80
2022/01/06 07:39:36;;;;;;;14.95;2.63;;;0.70;99.90;;;;;;5047082;28;20044;-80
2022/01/06 07:42:03;;;;;;;19.00;2.50;;;0.70;99.90;;;;;;5066718;28;20052;-81
2022/01/06 07:44:28;;;;;;;13.80;2.60;;;0.70;99.90;;;;;;5070573;28;20377;-81
2022/01/06 07:46:54;;;;;;;12.15;2.67;;;1.00;99.90;;;;;;5036741;28;20070;-81
2022/01/06 07:49:20;;;;;;;15.77;2.67;;;0.70;99.90;;;;;;5048997;28;20040;-80
2022/01/06 07:51:46;;;;;;;19.70;3.05;;;0.80;99.90;;;;;;5048335;28;20039;-81
2022/01/06 07:54:12;;;;;;;15.93;2.83;;;0.80;99.90;;;;;;5063424;28;20048;-81
2022/01/06 07:56:37;;;;;;;17.20;3.15;;;0.80;99.90;;;;;;5067244;28;20040;-80
2022/01/06 07:59:03;;;;;;;15.65;2.38;;;0.80;99.90;;;;;;5036225;28;20050;-81
2022/01/06 08:01:29;;;;;;;15.05;2.40;;;0.90;99.90;;;;;;5065172;28;20043;-80
2022/01/06 08:03:55;;;;;;;12.65;2.53;;;0.90;99.90;;;;;;5051755;28;20047;-81
2022/01/06 08:06:21;;;;;;;14.10;2.55;;;0.90;99.90;;;;;;5046121;28;20048;-81
2022/01/06 08:08:47;;;;;;;18.35;3.00;;;0.90;99.90;;;;;;5068059;28;20040;-81
2022/01/06 08:11:13;;;;;;;16.65;2.28;;;0.90;99.90;;;;;;5046836;28;20033;-81
2022/01/06 08:13:39;;;;;;;19.33;2.88;;;1.00;99.90;;;;;;5067608;28;20036;-81
2022/01/06 08:16:05;;;;;;;14.68;2.50;;;1.00;99.90;;;;;;5049236;28;20039;-81
2022/01/06 08:18:31;;;;;;;16.02;2.90;;;1.00;99.90;;;;;;5046048;28;20190;-80
2022/01/06 08:20:57;;;;;;;16.70;3.08;;;1.10;99.90;;;;;;5032461;28;20043;-81
2022/01/06 08:23:23;;;;;;;14.32;2.80;;;1.20;99.90;;;;;;5064014;28;20100;-81
2022/01/06 08:25:48;;;;;;;19.10;3.03;;;1.20;99.90;;;;;;5069001;28;20500;-80
2022/01/06 08:28:14;;;;;;;13.90;2.33;;;1.20;99.90;;;;;;5068118;28;20570;-81
2022/01/06 08:30:40;;;;;;;17.48;2.45;;;1.80;99.90;;;;;;5062915;28;20035;-80
2022/01/06 08:33:07;;;;;;;11.27;2.30;;;1.40;99.90;;;;;;5065178;28;20086;-80
2022/01/06 08:35:33;;;;;;;14.57;2.35;;;1.60;99.90;;;;;;5046336;28;20036;-81
2022/01/06 08:37:59;;;;;;;14.65;2.85;;;1.90;99.90;;;;;;5045935;28;20044;-80
2022/01/06 08:40:25;;;;;;;20.55;2.65;;;2.30;99.90;;;;;;5064831;28;20036;-80
2022/01/06 08:42:52;;;;;;;15.02;2.83;;;2.50;99.90;;;;;;5063946;28;20407;-80
2022/01/06 08:45:18;;;;;;;12.57;2.88;;;2.90;99.90;;;;;;5065954;28;20064;-81
2022/01/06 08:47:45;;;;;;;17.73;3.10;;;3.70;99.90;;;;;;5061601;28;20067;-81
2022/01/06 08:50:11;;;;;;;16.33;2.55;;;3.70;99.90;;;;;;5048055;28;20040;-81
2022/01/06 08:52:38;;;;;;;18.50;3.20;;;4.20;99.90;;;;;;5064673;28;20110;-80
2022/01/06 08:55:06;;;;;;;13.73;2.38;;;4.20;99.90;;;;;;5062292;28;20136;-81
2022/01/06 08:57:33;;;;;;;12.77;2.30;;;4.50;99.90;;;;;;5063312;28;20040;-80
2022/01/06 09:00:04;;;;;;;14.63;2.45;;;4.80;99.90;;;;;;5065707;28;20070;-81
2022/01/06 09:02:29;;;;;;;12.93;2.80;;;5.00;99.90;;;;;;5061947;28;20075;-80
2022/01/06 09:04:56;;;;;;;12.00;2.37;;;5.30;99.90;;;;;;5047760;28;20455;-81
2022/01/06 09:07:25;;;;;;;11.68;2.30;;;5.60;99.90;;;;;;5064772;28;20805;-80
2022/01/06 09:09:51;;;;;;;15.60;2.63;;;5.60;99.90;;;;;;5064402;28;20041;-81
2022/01/06 09:12:18;;;;;;;17.27;2.80;;;5.90;99.90;;;;;;5053066;28;20036;-81
2022/01/06 09:14:47;;;;;;;15.07;2.80;;;5.90;99.90;;;;;;5044763;28;20036;-81
2022/01/06 09:17:14;;;;;;;12.98;2.65;;;6.50;99.90;;;;;;5048073;28;20488;-81
2022/01/06 09:19:40;;;;;;;15.07;2.40;;;6.60;99.90;;;;;;5044796;28;20048;-81
2022/01/06 09:22:06;;;;;;;14.35;2.80;;;6.80;99.90;;;;;;5064402;28;20036;-81
2022/01/06 09:24:33;;;;;;;12.30;2.72;;;6.90;99.90;;;;;;5066672;28;20036;-81
2022/01/06 09:26:59;;;;;;;12.20;2.58;;;7.10;99.90;;;;;;5064003;28;20130;-81
2022/01/06 09:29:25;;;;;;;11.73;2.50;;;7.40;99.90;;;;;;5064363;28;20059;-81
2022/01/06 09:31:51;;;;;;;12.17;2.90;;;7.50;99.90;;;;;;5065956;28;20376;-81
2022/01/06 09:34:16;;;;;;;16.92;2.70;;;7.70;99.90;;;;;;5059069;28;20294;-81
2022/01/06 09:36:43;;;;;;;12.00;2.30;;;7.90;99.90;;;;;;5048069;28;20458;-81
2022/01/06 09:39:11;;;;;;;11.70;3.08;;;8.40;99.90;;;;;;5033208;28;20125;-81
2022/01/06 09:41:38;;;;;;;10.07;2.72;;;8.20;99.90;;;;;;5063725;28;20094;-80
2022/01/06 09:44:05;;;;;;;15.90;3.10;;;8.60;99.90;;;;;;5058991;28;20082;-80
2022/01/06 09:46:31;;;;;;;16.63;2.85;;;8.60;99.90;;;;;;5046914;28;20511;-81
2022/01/06 09:49:00;;;;;;;14.18;2.65;;;8.80;99.90;;;;;;5063447;28;20040;-81
2022/01/06 09:51:28;;;;;;;14.40;3.10;;;8.70;99.90;;;;;;5044586;28;20029;-81
2022/01/06 09:53:59;;;;;;;11.43;2.30;;;8.50;99.90;;;;;;5061508;28;20517;-81
2022/01/06 09:56:27;;;;;;;14.85;3.10;;;8.50;99.90;;;;;;5063177;28;20044;-81
2022/01/06 09:58:54;;;;;;;18.52;3.20;;;9.00;99.90;;;;;;5060616;28;20113;-81
2022/01/06 10:01:20;;;;;;;16.20;3.30;;;8.80;99.90;;;;;;5067338;28;20071;-80
2022/01/06 10:03:48;;;;;;;12.55;2.45;;;9.20;99.90;;;;;;5046338;28;20051;-81
2022/01/06 10:06:23;;;;;;;13.15;2.70;;;9.70;99.90;;;;;;5061853;28;20036;-81
2022/01/06 10:09:02;;;;;;;15.13;2.70;;;10.20;99.90;;;;;;5059021;28;20476;-81
2022/01/06 10:11:31;;;;;;;14.70;2.85;;;10.50;99.90;;;;;;5060698;28;20032;-80
2022/01/06 10:14:06;;;;;;;13.23;3.25;;;10.70;99.90;;;;;;5047849;28;20491;-81
2022/01/06 10:16:33;;;;;;;13.13;3.08;;;11.00;99.90;;;;;;5066416;28;20039;-81
2022/01/06 10:19:10;;;;;;;9.77;2.92;;;10.90;99.90;;;;;;5037704;28;20043;-81
2022/01/06 10:21:40;;;;;;;;;;;11.40;99.90;;;;;;5045871;28;20028;-81
2022/01/06 10:24:14;;;;;;;14.45;3.10;;;11.70;99.90;;;;;;5063395;28;19916;-81
2022/01/06 10:26:56;;;;;;;14.10;2.83;;;11.80;99.90;;;;;;5066358;28;20403;-81
2022/01/06 10:29:29;;;;;;;14.38;3.00;;;11.80;99.90;;;;;;5065591;28;20032;-81
2022/01/06 10:32:25;;;;;;;13.55;3.35;;;12.10;99.90;;;;;;5063037;28;20040;-81
2022/01/06 10:34:56;;;;;;;13.52;2.88;;;12.40;99.90;;;;;;5055142;28;20080;-81
2022/01/06 10:37:38;;;;;;;13.80;2.75;;;12.30;99.90;;;;;;5055988;28;20035;-81
2022/01/06 10:40:07;;;;;;;12.23;2.83;;;12.60;99.90;;;;;;5044395;28;20127;-80
2022/01/06 10:42:35;;;;;;;15.15;2.60;;;12.50;99.90;;;;;;5042265;28;20076;-80
2022/01/06 10:45:13;;;;;;;13.13;2.83;;;12.80;99.90;;;;;;5045685;28;20499;-80
2022/01/06 10:47:50;;;;;;;10.15;2.70;;;12.70;99.90;;;;;;5060426;28;20036;-81
2022/01/06 10:50:17;;;;;;;;;;;12.70;99.90;;;;;;5048616;28;20040;-81
2022/01/06 10:52:49;;;;;;;15.90;2.50;;;12.90;99.90;;;;;;5048159;28;19967;-81
2022/01/06 10:55:25;;;;;;;10.98;2.28;;;12.80;99.90;;;;;;5067569;28;20404;-81
2022/01/06 10:58:12;;;;;;;11.90;2.50;;;13.40;99.90;;;;;;5066884;28;20146;-81
2022/01/06 11:00:40;;;;;;;12.13;2.83;;;13.50;99.90;;;;;;5070603;28;20407;-80
2022/01/06 11:03:11;;;;;;;9.88;2.70;;;13.60;99.90;;;;;;5067075;28;20492;-81
2022/01/06 11:05:40;;;;;;;10.38;2.95;;;13.90;99.90;;;;;;5066122;28;20040;-80
2022/01/06 11:08:07;;;;;;;11.88;2.40;;;13.80;99.90;;;;;;5064607;28;20564;-80
2022/01/06 11:10:35;;;;;;;11.18;2.45;;;14.10;99.90;;;;;;5033096;28;20036;-80
2022/01/06 11:13:01;;;;;;;14.73;3.17;;;14.50;99.90;;;;;;5053026;28;20040;-80
2022/01/06 11:15:27;;;;;;;14.88;2.97;;;14.20;99.90;;;;;;5047609;28;20043;-80
2022/01/06 11:17:53;;;;;;;10.82;3.03;;;13.90;99.90;;;;;;5064624;28;20052;-80
2022/01/06 11:20:24;;;;;;;15.57;2.85;;;14.70;99.90;;;;;;5066180;28;20036;-80
2022/01/06 11:22:56;;;;;;;12.80;3.13;;;14.10;99.90;;;;;;5047786;28;20557;-80
2022/01/06 11:25:38;;;;;;;12.90;2.83;;;14.10;99.90;;;;;;5066831;28;20036;-80
2022/01/06 11:28:12;;;;;;;16.13;3.38;;;14.20;99.90;;;;;;5064134;28;20137;-80
2022/01/06 11:30:51;;;;;;;12.18;2.60;;;14.40;99.90;;;;;;5043851;28;20033;-80
2022/01/06 11:33:17;;;;;;;10.15;2.65;;;14.60;99.90;;;;;;5064468;28;20043;-80
2022/01/06 11:35:53;;;;;;;;;;;14.50;99.90;;;;;;5067182;28;20032;-80
2022/01/06 11:38:26;;;;;;;11.93;3.13;;;14.50;99.90;;;;;;5068783;28;20360;-80
2022/01/06 11:41:06;;;;;;;10.98;2.70;;;14.30;99.90;;;;;;5046687;28;20044;-80
2022/01/06 11:43:50;;;;;;;12.65;2.55;;;14.60;99.90;;;;;;5047448;28;20768;-80
2022/01/06 11:46:16;;;;;;;16.23;3.10;;;14.50;99.90;;;;;;5064223;28;20472;-80
2022/01/06 11:48:55;;;;;;;15.10;3.15;;;14.60;99.90;;;;;;5066054;28;20051;-80
2022/01/06 11:51:32;;;;;;;11.70;2.88;;;15.00;99.90;;;;;;5061253;28;20058;-80
2022/01/06 11:54:10;;;;;;;11.45;2.90;;;14.90;99.90;;;;;;5068116;28;20070;-80
2022/01/06 11:56:52;;;;;;;14.57;2.83;;;14.70;99.90;;;;;;5051771;28;20040;-80
2022/01/06 11:59:36;;;;;;;13.90;3.13;;;14.90;99.90;;;;;;5051091;28;20072;-80
2022/01/06 12:02:02;;;;;;;12.20;2.47;;;14.90;99.90;;;;;;5048800;28;20044;-80
2022/01/06 12:04:28;;;;;;;10.85;2.15;;;15.10;99.90;;;;;;5049591;28;20043;-80
2022/01/06 12:07:05;;;;;;;11.35;2.55;;;15.20;99.90;;;;;;5051323;28;20090;-80
2022/01/06 12:09:31;;;;;;;14.50;2.50;;;15.40;99.90;;;;;;5046891;28;20047;-80
2022/01/06 12:12:03;;;;;;;13.18;2.30;;;15.30;99.90;;;;;;5063204;28;20032;-80
2022/01/06 12:14:30;;;;;;;12.95;2.50;;;15.30;99.90;;;;;;5064252;28;20426;-80
2022/01/06 12:17:08;;;;;;;8.95;2.13;;;15.50;99.90;;;;;;5070694;28;20488;-80
2022/01/06 12:19:34;;;;;;;11.50;2.83;;;15.70;99.90;;;;;;5063189;28;20036;-80
2022/01/06 12:22:00;;;;;;;13.30;2.47;;;15.40;99.90;;;;;;5064171;28;20101;-80
2022/01/06 12:24:26;;;;;;;9.80;2.17;;;15.40;99.90;;;;;;5070530;28;20103;-80
2022/01/06 12:26:52;;;;;;;12.38;2.65;;;15.60;99.90;;;;;;5066650;28;20075;-80
2022/01/06 12:29:20;;;;;;;11.07;2.10;;;15.50;99.90;;;;;;5067418;28;20038;-80
2022/01/06 12:31:47;;;;;;;10.95;2.40;;;15.50;99.90;;;;;;5060950;28;20437;-80
2022/01/06 12:34:14;;;;;;;8.93;1.98;;;15.50;99.90;;;;;;5043705;28;20041;-80
2022/01/06 12:36:43;;;;;;;11.02;2.15;;;15.30;99.90;;;;;;5060571;28;20119;-80
2022/01/06 12:39:11;;;;;;;13.50;2.42;;;15.20;99.90;;;;;;5046355;28;20040;-80
2022/01/06 12:41:37;;;;;;;10.45;2.08;;;14.90;99.90;;;;;;5064722;28;20462;-80
2022/01/06 12:44:03;;;;;;;9.02;2.20;;;14.90;99.90;;;;;;5014879;28;20517;-80
2022/01/06 12:46:37;;;;;;;10.02;2.20;;;14.80;99.90;;;;;;5068259;28;20041;-80
2022/01/06 12:49:07;;;;;;;10.40;2.53;;;15.00;99.90;;;;;;5064052;28;20035;-80
2022/01/06 12:51:38;;;;;;;9.20;2.00;;;15.10;99.90;;;;;;5069821;28;20036;-79
2022/01/06 12:54:15;;;;;;;14.13;2.30;;;14.70;99.90;;;;;;5062652;28;20424;-80